Time;durP1;ratioP1;P1;durP2;ratioP2;P2;SDS_P1;SDS_P2;PMS_P1;PMS_P2;Temp;Humidity;BMP_temperature;BMP_pressure;BME280_temperature;BME280_humidity;BME280_pressure;Samples;Min_cycle;Max_cycle;Signal;HPM_P1;HPM_P2
2021/11/26 10:14:54;;;;;;;20.98;11.02;;;5.20;99.90;;;;;;5057682;27;20483;-58
2021/11/26 10:17:23;;;;;;;25.98;12.23;;;5.20;99.90;;;;;;5067008;28;20482;-58
2021/11/26 10:19:50;;;;;;;19.88;10.02;;;5.20;99.90;;;;;;5061950;28;20524;-57
2021/11/26 10:22:30;;;;;;;18.80;9.60;;;5.20;99.90;;;;;;5064325;28;20033;-59
2021/11/26 10:25:11;;;;;;;18.83;8.57;;;5.20;99.90;;;;;;5058404;28;20128;-59
2021/11/26 10:27:49;;;;;;;19.50;9.02;;;5.30;99.90;;;;;;5064745;28;20020;-59
2021/11/26 10:30:25;;;;;;;18.30;8.35;;;5.30;99.90;;;;;;5058981;28;20025;-60
2021/11/26 10:32:58;;;;;;;16.75;8.65;;;5.30;99.90;;;;;;5061167;28;20020;-56
2021/11/26 10:35:29;;;;;;;19.15;9.13;;;5.30;99.90;;;;;;5063394;28;20315;-59
2021/11/26 10:38:10;;;;;;;20.60;9.30;;;5.30;99.90;;;;;;5057758;28;20035;-54
2021/11/26 10:40:46;;;;;;;16.92;8.73;;;5.50;99.90;;;;;;5066885;28;20033;-54
2021/11/26 10:43:16;;;;;;;21.73;10.07;;;5.50;99.90;;;;;;5064333;28;20374;-54
2021/11/26 10:46:41;;;;;;;21.20;10.32;;;5.60;99.90;;;;;;5061429;28;20029;-55
2021/11/26 10:59:00;;;;;;;24.05;11.00;;;5.60;99.90;;;;;;5049145;28;20543;-51
2021/11/26 11:01:26;;;;;;;24.52;10.77;;;5.60;99.90;;;;;;5064827;28;20044;-58
2021/11/26 11:03:53;;;;;;;22.88;10.40;;;5.70;99.90;;;;;;5063707;28;20037;-57
2021/11/26 11:06:20;;;;;;;22.63;10.55;;;5.60;99.90;;;;;;5066284;28;20385;-59
2021/11/26 11:09:02;;;;;;;27.63;10.65;;;5.60;99.90;;;;;;5063577;28;20032;-58
2021/11/26 11:11:28;;;;;;;25.52;11.57;;;5.60;99.90;;;;;;5050637;28;20601;-58
2021/11/26 11:13:55;;;;;;;24.27;10.38;;;5.60;99.90;;;;;;5061516;28;20044;-59
2021/11/26 11:16:21;;;;;;;22.60;10.55;;;5.50;99.90;;;;;;5061403;28;20606;-61
2021/11/26 11:18:47;;;;;;;28.10;11.65;;;5.50;99.90;;;;;;5061046;28;20035;-59
2021/11/26 11:22:46;;;;;;;29.55;12.23;;;5.60;99.90;;;;;;5105286;27;20150;-57
2021/11/26 11:25:16;;;;;;;22.70;11.48;;;5.70;99.90;;;;;;5106090;28;20423;-61
2021/11/26 11:27:42;;;;;;;25.85;11.30;;;5.70;99.90;;;;;;5110867;28;20024;-61
2021/11/26 11:30:10;;;;;;;26.83;12.23;;;5.70;99.90;;;;;;5104574;28;20084;-61
2021/11/26 11:32:38;;;;;;;28.95;12.65;;;5.70;99.90;;;;;;5105200;28;20101;-59
2021/11/26 11:35:11;;;;;;;27.92;13.18;;;5.70;99.90;;;;;;5105381;28;20042;-60
2021/11/26 11:37:38;;;;;;;30.63;13.18;;;5.70;99.90;;;;;;5107477;28;20042;-59
2021/11/26 11:40:09;;;;;;;24.98;11.95;;;5.70;99.90;;;;;;5101142;28;20036;-61
2021/11/26 11:42:43;;;;;;;26.30;12.93;;;5.70;99.90;;;;;;5107468;28;20073;-61
2021/11/26 11:45:10;;;;;;;24.42;11.38;;;5.70;99.90;;;;;;5097849;28;20362;-62
2021/11/26 11:47:48;;;;;;;33.63;13.73;;;5.80;99.90;;;;;;5099734;28;20028;-62
2021/11/26 11:50:30;;;;;;;29.90;12.80;;;5.70;99.90;;;;;;5100616;28;20044;-60
2021/11/26 11:53:00;;;;;;;28.15;12.77;;;5.80;99.90;;;;;;5100532;28;20020;-60
2021/11/26 11:55:29;;;;;;;26.15;12.57;;;5.80;99.90;;;;;;5105533;28;20035;-60
2021/11/26 11:58:17;;;;;;;28.88;14.38;;;5.80;99.90;;;;;;5105490;28;20448;-58
2021/11/26 12:00:45;;;;;;;27.48;13.13;;;5.80;99.90;;;;;;5104153;28;20607;-61
2021/11/26 12:03:19;;;;;;;29.80;13.70;;;5.80;99.90;;;;;;5087715;28;20082;-63
2021/11/26 12:06:03;;;;;;;28.35;13.63;;;5.80;99.90;;;;;;5102354;28;20451;-63
2021/11/26 12:08:29;;;;;;;30.13;15.00;;;5.90;99.90;;;;;;5098526;28;20028;-60
2021/11/26 12:11:00;;;;;;;28.23;13.70;;;6.00;99.90;;;;;;5101449;28;20396;-58
2021/11/26 12:13:35;;;;;;;37.42;16.23;;;6.10;99.90;;;;;;5096058;28;20031;-59
2021/11/26 12:16:12;;;;;;;35.08;15.45;;;6.10;99.90;;;;;;5096824;28;20150;-58
2021/11/26 12:18:49;;;;;;;34.70;15.38;;;6.10;99.90;;;;;;5078392;28;20052;-57
2021/11/26 12:21:27;;;;;;;30.05;14.10;;;6.10;99.90;;;;;;5106316;28;20080;-59
2021/11/26 12:24:09;;;;;;;34.05;15.88;;;6.10;99.90;;;;;;5089850;28;20073;-61
2021/11/26 12:26:54;;;;;;;39.78;16.63;;;6.00;99.90;;;;;;5106734;28;20435;-58
2021/11/26 12:29:30;;;;;;;35.80;16.83;;;6.00;99.90;;;;;;5105769;28;20024;-58
2021/11/26 12:32:09;;;;;;;35.83;16.95;;;6.10;99.90;;;;;;5105650;28;20420;-59
2021/11/26 12:34:43;;;;;;;33.97;14.43;;;6.10;99.90;;;;;;5092887;28;20032;-59
2021/11/26 12:37:23;;;;;;;34.28;15.77;;;6.10;99.90;;;;;;5092278;28;20085;-60
2021/11/26 12:39:51;;;;;;;31.27;13.90;;;6.10;99.90;;;;;;5092134;28;20093;-61
2021/11/26 12:42:18;;;;;;;40.28;16.75;;;6.10;99.90;;;;;;5092779;28;20028;-59
2021/11/26 12:45:02;;;;;;;36.83;14.63;;;6.10;99.90;;;;;;5090228;28;20046;-60
2021/11/26 12:48:33;;;;;;;37.83;14.80;;;6.10;99.90;;;;;;5072614;28;20025;-61
2021/11/26 12:51:04;;;;;;;36.13;14.70;;;6.10;99.90;;;;;;5069147;28;20036;-60
2021/11/26 12:53:31;;;;;;;38.03;16.55;;;6.10;99.90;;;;;;5072198;28;20020;-59
2021/11/26 12:56:03;;;;;;;38.17;14.43;;;6.10;99.90;;;;;;5071284;28;20032;-59
2021/11/26 12:58:31;;;;;;;34.55;14.90;;;6.10;99.90;;;;;;5071108;28;20042;-57
2021/11/26 13:01:08;;;;;;;33.78;14.52;;;6.10;99.90;;;;;;5071413;28;20046;-57
2021/11/26 13:04:00;;;;;;;37.28;13.38;;;6.10;99.90;;;;;;5054339;28;20059;-60
2021/11/26 13:06:31;;;;;;;37.85;13.88;;;6.00;99.90;;;;;;5068241;28;20040;-56
2021/11/26 13:08:57;;;;;;;34.72;13.30;;;6.00;99.90;;;;;;5070584;28;20066;-58
2021/11/26 13:11:23;;;;;;;40.67;14.40;;;6.00;99.90;;;;;;5071715;28;20028;-60
2021/11/26 13:13:49;;;;;;;36.53;13.38;;;6.00;99.90;;;;;;5071790;28;20507;-56
2021/11/26 13:16:16;;;;;;;36.88;13.88;;;6.10;99.90;;;;;;5071118;28;20035;-59
2021/11/26 13:18:42;;;;;;;33.80;11.88;;;6.10;99.90;;;;;;5070889;28;20047;-60
2021/11/26 13:21:10;;;;;;;35.83;13.80;;;6.00;99.90;;;;;;5071146;28;20028;-59
2021/11/26 13:23:38;;;;;;;31.02;13.50;;;6.10;99.90;;;;;;5071378;28;20051;-58
2021/11/26 13:26:07;;;;;;;28.33;12.32;;;6.10;99.90;;;;;;5071131;28;20043;-59
2021/11/26 13:28:37;;;;;;;29.63;12.10;;;6.10;99.90;;;;;;5070751;28;20021;-58
2021/11/26 13:31:06;;;;;;;29.40;10.68;;;6.10;99.90;;;;;;5070801;28;20032;-59
2021/11/26 13:33:34;;;;;;;27.55;10.65;;;6.10;99.90;;;;;;5071486;28;20075;-58
2021/11/26 13:36:05;;;;;;;24.48;9.68;;;6.00;99.90;;;;;;5070886;28;20032;-58
2021/11/26 13:38:34;;;;;;;28.17;10.85;;;6.10;99.90;;;;;;5069278;28;20020;-58
2021/11/26 13:41:10;;;;;;;29.60;10.98;;;6.00;99.90;;;;;;5071403;28;20151;-56
2021/11/26 13:43:38;;;;;;;27.67;11.55;;;6.00;99.90;;;;;;5070987;28;20025;-56
2021/11/26 13:46:07;;;;;;;30.65;11.32;;;6.00;99.90;;;;;;5070096;28;20017;-56
2021/11/26 13:48:43;;;;;;;28.83;9.65;;;6.00;99.90;;;;;;5070625;28;20027;-58
2021/11/26 13:51:14;;;;;;;23.30;9.23;;;6.00;99.90;;;;;;5070630;28;20036;-58
2021/11/26 13:53:42;;;;;;;36.10;10.35;;;6.10;99.90;;;;;;5071083;28;20401;-59
2021/11/26 13:56:08;;;;;;;26.75;9.43;;;6.00;99.90;;;;;;5070710;28;20592;-55
2021/11/26 13:58:34;;;;;;;30.58;11.13;;;6.00;99.90;;;;;;5070347;28;20033;-58
2021/11/26 14:01:00;;;;;;;23.38;10.55;;;6.00;99.90;;;;;;5070250;28;20446;-57
2021/11/26 14:03:39;;;;;;;27.90;10.45;;;6.00;99.90;;;;;;5070994;28;20505;-59
2021/11/26 14:06:09;;;;;;;30.88;11.57;;;6.00;99.90;;;;;;5070798;28;20479;-58
2021/11/26 14:09:07;;;;;;;26.58;10.60;;;6.10;99.90;;;;;;5070264;28;20040;-59
2021/11/26 14:11:40;;;;;;;21.55;10.40;;;6.00;99.90;;;;;;5070547;28;20033;-58
2021/11/26 14:14:10;;;;;;;21.55;9.73;;;6.00;99.90;;;;;;5070498;28;20025;-57
2021/11/26 14:16:48;;;;;;;28.02;10.32;;;6.00;99.90;;;;;;5071104;28;20039;-58
2021/11/26 14:19:39;;;;;;;20.20;9.50;;;5.90;99.90;;;;;;5069609;28;20496;-58
2021/11/26 14:22:14;;;;;;;25.08;8.93;;;5.80;99.90;;;;;;5070601;28;20444;-58
2021/11/26 14:24:48;;;;;;;23.55;7.50;;;5.80;99.90;;;;;;5068885;28;20020;-58
2021/11/26 14:27:25;;;;;;;21.15;8.75;;;5.70;99.90;;;;;;5069847;28;20472;-58
2021/11/26 14:29:54;;;;;;;16.00;8.38;;;5.70;99.90;;;;;;5069178;28;20041;-58
2021/11/26 14:32:21;;;;;;;18.92;8.60;;;5.60;99.90;;;;;;5070062;28;20028;-60
2021/11/26 14:34:48;;;;;;;26.85;8.30;;;5.60;99.90;;;;;;5068857;28;20037;-58
2021/11/26 14:37:20;;;;;;;18.88;8.13;;;5.60;99.90;;;;;;5069623;28;20024;-58
2021/11/26 14:39:46;;;;;;;22.33;7.55;;;5.60;99.90;;;;;;5069381;28;20032;-58
2021/11/26 14:42:14;;;;;;;20.23;8.70;;;5.60;99.90;;;;;;5068045;28;20036;-59
2021/11/26 14:44:55;;;;;;;16.50;6.28;;;5.60;99.90;;;;;;5070007;28;20021;-61
2021/11/26 14:47:38;;;;;;;17.52;7.97;;;5.60;99.90;;;;;;5083113;28;20024;-60
2021/11/26 14:50:22;;;;;;;19.02;7.82;;;5.50;99.90;;;;;;5088921;28;20077;-60
2021/11/26 14:52:48;;;;;;;16.35;6.43;;;5.50;99.90;;;;;;5088967;28;20156;-59
2021/11/26 14:55:14;;;;;;;21.02;7.85;;;5.50;99.90;;;;;;5089415;28;20035;-60
2021/11/26 14:57:40;;;;;;;20.40;8.27;;;5.40;99.90;;;;;;5089839;28;20020;-59
2021/11/26 15:00:09;;;;;;;18.85;8.30;;;5.40;99.90;;;;;;5088678;28;20028;-58
2021/11/26 15:02:35;;;;;;;19.65;8.57;;;5.40;99.90;;;;;;5089923;28;20062;-59
2021/11/26 15:05:01;;;;;;;18.80;7.97;;;5.40;99.90;;;;;;5089267;28;20024;-59
2021/11/26 15:07:28;;;;;;;18.00;9.07;;;5.40;99.90;;;;;;5080319;28;20066;-59
2021/11/26 15:09:55;;;;;;;21.83;8.77;;;5.40;99.90;;;;;;5076126;28;20369;-60
2021/11/26 15:12:22;;;;;;;18.52;9.10;;;5.30;99.90;;;;;;5086181;28;20016;-62
2021/11/26 15:14:48;;;;;;;51.53;26.40;;;5.30;99.90;;;;;;5081386;28;20393;-56
2021/11/26 15:17:14;;;;;;;33.25;16.98;;;5.30;99.90;;;;;;5069528;28;20055;-56
2021/11/26 15:19:40;;;;;;;27.08;12.75;;;5.40;99.90;;;;;;5079398;28;20034;-64
2021/11/26 15:22:06;;;;;;;22.00;9.13;;;5.40;99.90;;;;;;5088829;28;20040;-60
2021/11/26 15:24:32;;;;;;;21.30;9.52;;;5.40;99.90;;;;;;5083970;28;20021;-60
2021/11/26 15:26:58;;;;;;;18.30;8.18;;;5.40;99.90;;;;;;5083864;28;20081;-59
2021/11/26 15:29:24;;;;;;;14.18;7.95;;;5.40;99.90;;;;;;5078001;28;20035;-58
2021/11/26 15:31:50;;;;;;;20.00;9.27;;;5.30;99.90;;;;;;5077079;28;20032;-60
2021/11/26 15:34:16;;;;;;;15.10;8.57;;;5.30;99.90;;;;;;5087734;28;20052;-59
2021/11/26 15:36:42;;;;;;;17.90;8.10;;;5.30;99.90;;;;;;5090170;28;20032;-58
2021/11/26 15:39:11;;;;;;;15.63;7.30;;;5.30;99.90;;;;;;5088683;28;20032;-58
2021/11/26 15:41:43;;;;;;;25.45;9.02;;;5.20;99.90;;;;;;5089599;28;20484;-61
2021/11/26 15:44:09;;;;;;;14.73;7.27;;;5.20;99.90;;;;;;5089113;28;20027;-59
2021/11/26 15:46:36;;;;;;;17.27;7.68;;;5.20;99.90;;;;;;5089522;28;20631;-58
2021/11/26 15:49:03;;;;;;;13.20;7.50;;;5.10;99.90;;;;;;5087446;28;20100;-58
2021/11/26 15:51:28;;;;;;;15.80;7.82;;;5.10;99.90;;;;;;5089701;28;20039;-60
2021/11/26 15:53:54;;;;;;;17.30;7.72;;;5.10;99.90;;;;;;5089141;28;20024;-59
2021/11/26 15:56:20;;;;;;;12.80;7.30;;;5.10;99.90;;;;;;5087962;28;20485;-57
2021/11/26 15:58:46;;;;;;;17.30;7.45;;;5.10;99.90;;;;;;5088906;28;20040;-58
2021/11/26 16:01:15;;;;;;;18.77;8.18;;;5.10;99.90;;;;;;5088835;28;20047;-57
2021/11/26 16:03:42;;;;;;;13.52;7.40;;;5.10;99.90;;;;;;5087769;28;20089;-58
2021/11/26 16:06:08;;;;;;;18.25;7.95;;;5.10;99.90;;;;;;5089193;28;20480;-59
2021/11/26 16:08:34;;;;;;;13.85;7.57;;;5.10;99.90;;;;;;5090720;28;20069;-58
2021/11/26 16:11:01;;;;;;;16.30;6.85;;;5.10;99.90;;;;;;5089224;28;20032;-60
2021/11/26 16:13:29;;;;;;;15.38;7.95;;;5.00;99.90;;;;;;5093167;28;20032;-58
2021/11/26 16:15:58;;;;;;;17.60;7.45;;;5.00;99.90;;;;;;5092607;28;20108;-58
2021/11/26 16:18:25;;;;;;;16.52;7.70;;;5.00;99.90;;;;;;5092657;28;20024;-58
2021/11/26 16:20:51;;;;;;;13.90;7.50;;;5.00;99.90;;;;;;5091511;28;20097;-60
2021/11/26 16:23:16;;;;;;;15.05;8.00;;;5.00;99.90;;;;;;5091830;28;20111;-59
2021/11/26 16:25:42;;;;;;;18.95;8.25;;;5.00;99.90;;;;;;5093273;28;20031;-57
2021/11/26 16:28:08;;;;;;;15.88;7.90;;;5.00;99.90;;;;;;5092256;28;20416;-58
2021/11/26 16:30:38;;;;;;;15.40;8.20;;;5.00;99.90;;;;;;5092939;28;20031;-58
2021/11/26 16:35:42;;;;;;;14.40;7.60;;;5.00;99.90;;;;;;5093265;28;20027;-59
2021/11/26 16:38:09;;;;;;;19.38;9.20;;;4.90;99.90;;;;;;5092063;28;20469;-60
2021/11/26 16:40:34;;;;;;;13.30;7.93;;;4.90;99.90;;;;;;5092717;28;20020;-60
2021/11/26 16:43:01;;;;;;;16.38;8.73;;;4.90;99.90;;;;;;5092309;28;20024;-60
2021/11/26 16:45:32;;;;;;;15.85;7.22;;;4.90;99.90;;;;;;5092931;28;20492;-60
2021/11/26 16:47:58;;;;;;;17.85;8.95;;;4.90;99.90;;;;;;5091819;28;20028;-60
2021/11/26 16:50:25;;;;;;;18.08;9.40;;;4.90;99.90;;;;;;5091591;28;20039;-60
2021/11/26 16:52:51;;;;;;;18.65;9.15;;;4.90;99.90;;;;;;5092152;28;20502;-59
2021/11/26 16:55:18;;;;;;;21.27;8.57;;;4.90;99.90;;;;;;5092564;28;20107;-60
2021/11/26 16:57:44;;;;;;;19.27;9.70;;;4.90;99.90;;;;;;5091042;28;20023;-60
2021/11/26 17:00:12;;;;;;;20.83;9.13;;;4.90;99.90;;;;;;5091925;28;20039;-61
2021/11/26 17:02:37;;;;;;;17.85;9.43;;;4.90;99.90;;;;;;5092441;28;20469;-61
2021/11/26 17:05:04;;;;;;;19.42;9.45;;;4.90;99.90;;;;;;5091780;28;20028;-61
2021/11/26 17:07:30;;;;;;;19.35;9.68;;;4.90;99.90;;;;;;5092211;28;20515;-61
2021/11/26 17:09:58;;;;;;;17.20;8.55;;;4.90;99.90;;;;;;5090064;28;20032;-61
2021/11/26 17:12:26;;;;;;;19.38;9.40;;;4.90;99.90;;;;;;5092306;28;20114;-61
2021/11/26 17:14:52;;;;;;;16.40;9.05;;;4.80;99.90;;;;;;5092156;28;20109;-61
2021/11/26 17:17:19;;;;;;;20.08;9.48;;;4.80;99.90;;;;;;5090686;28;20115;-61
2021/11/26 17:19:44;;;;;;;18.92;9.15;;;4.80;99.90;;;;;;5091458;28;20024;-60
2021/11/26 17:22:10;;;;;;;20.25;10.40;;;4.80;99.90;;;;;;5091273;28;20612;-60
2021/11/26 17:24:36;;;;;;;20.60;9.73;;;4.80;99.90;;;;;;5090338;28;20115;-60
2021/11/26 17:27:02;;;;;;;15.95;8.80;;;4.80;99.90;;;;;;5091767;28;20024;-60
2021/11/26 17:29:29;;;;;;;20.63;10.00;;;4.80;99.90;;;;;;5091462;28;20427;-60
2021/11/26 17:31:54;;;;;;;20.13;10.63;;;4.80;99.90;;;;;;5090154;28;20020;-61
2021/11/26 17:34:20;;;;;;;19.55;9.82;;;4.80;99.90;;;;;;5085053;28;20104;-60
2021/11/26 17:36:46;;;;;;;22.20;10.73;;;4.70;99.90;;;;;;5084154;28;20032;-61
2021/11/26 17:39:12;;;;;;;24.48;9.88;;;4.70;99.90;;;;;;5087471;28;20418;-60
2021/11/26 17:41:38;;;;;;;19.85;10.50;;;4.70;99.90;;;;;;5084727;28;20039;-61
2021/11/26 17:44:04;;;;;;;23.15;10.57;;;4.70;99.90;;;;;;5085621;28;20016;-62
2021/11/26 17:46:30;;;;;;;18.65;9.25;;;4.70;99.90;;;;;;5070725;28;20080;-61
2021/11/26 17:48:56;;;;;;;43.83;21.67;;;4.70;99.90;;;;;;5077182;28;20063;-58
2021/11/26 17:51:24;;;;;;;31.63;17.52;;;4.70;99.90;;;;;;5087144;28;20020;-58
2021/11/26 17:53:51;;;;;;;27.88;15.95;;;4.90;99.90;;;;;;5091384;28;20131;-59
2021/11/26 17:56:17;;;;;;;18.40;9.63;;;4.80;99.90;;;;;;5086415;28;20032;-61
2021/11/26 17:58:43;;;;;;;18.83;9.60;;;4.90;99.90;;;;;;5090721;28;20127;-61
2021/11/26 18:01:09;;;;;;;20.95;10.57;;;4.80;99.90;;;;;;5089657;28;20150;-61
2021/11/26 18:03:35;;;;;;;19.02;10.60;;;4.70;99.90;;;;;;5092045;28;20055;-61
2021/11/26 18:06:14;;;;;;;25.17;10.63;;;4.70;99.90;;;;;;5091108;28;20430;-61
2021/11/26 18:08:48;;;;;;;19.70;9.60;;;4.70;99.90;;;;;;5084860;28;20468;-61
2021/11/26 18:11:20;;;;;;;19.45;10.02;;;4.70;99.90;;;;;;5090432;28;20465;-59
2021/11/26 18:13:45;;;;;;;20.48;10.35;;;4.60;99.90;;;;;;5090670;28;20541;-62
2021/11/26 18:16:12;;;;;;;21.70;10.90;;;4.60;99.90;;;;;;5090875;28;20119;-62
2021/11/26 18:18:39;;;;;;;18.67;10.32;;;4.60;99.90;;;;;;5089335;28;20105;-61
2021/11/26 18:21:05;;;;;;;22.33;10.00;;;4.60;99.90;;;;;;5090568;28;20410;-62
2021/11/26 18:23:31;;;;;;;17.20;9.57;;;4.60;99.90;;;;;;5089499;28;20165;-60
2021/11/26 18:25:57;;;;;;;17.15;9.32;;;4.60;99.90;;;;;;5090674;28;20099;-62
2021/11/26 18:28:23;;;;;;;20.50;10.57;;;4.60;99.90;;;;;;5090296;28;20158;-62
2021/11/26 18:30:50;;;;;;;17.50;9.18;;;4.50;99.90;;;;;;5090404;28;20028;-61
2021/11/26 18:33:16;;;;;;;19.90;10.38;;;4.50;99.90;;;;;;5090703;28;20020;-60
2021/11/26 18:35:43;;;;;;;17.35;9.40;;;4.50;99.90;;;;;;5090590;28;20032;-61
2021/11/26 18:38:10;;;;;;;20.77;10.18;;;4.50;99.90;;;;;;5089543;28;20038;-61
2021/11/26 18:40:39;;;;;;;18.30;10.50;;;4.50;99.90;;;;;;5090491;28;20368;-61
2021/11/26 18:43:13;;;;;;;18.73;10.75;;;4.50;99.90;;;;;;5088370;28;20020;-61
2021/11/26 18:45:40;;;;;;;20.48;10.13;;;4.50;99.90;;;;;;5070669;28;20059;-61
2021/11/26 18:48:06;;;;;;;19.85;10.07;;;4.60;99.90;;;;;;5071153;28;20102;-61
2021/11/26 18:50:31;;;;;;;20.75;9.43;;;4.60;99.90;;;;;;5089012;28;20028;-61
2021/11/26 18:52:59;;;;;;;14.48;8.35;;;4.60;99.90;;;;;;5090071;28;20028;-62
2021/11/26 18:55:25;;;;;;;15.98;9.15;;;4.60;99.90;;;;;;5090664;28;20028;-61
2021/11/26 18:57:52;;;;;;;16.42;10.23;;;4.50;99.90;;;;;;5090070;28;20031;-61
2021/11/26 19:00:18;;;;;;;15.50;9.07;;;4.50;99.90;;;;;;5082389;28;20123;-62
2021/11/26 19:02:44;;;;;;;17.77;9.68;;;4.50;99.90;;;;;;5086350;28;20036;-60
2021/11/26 19:05:11;;;;;;;18.08;9.23;;;4.50;99.90;;;;;;5069116;28;20029;-60
2021/11/26 19:07:37;;;;;;;21.05;11.05;;;4.50;99.90;;;;;;5069755;28;20024;-57
2021/11/26 19:10:04;;;;;;;20.20;10.15;;;4.50;99.90;;;;;;5077606;28;20647;-58
2021/11/26 19:12:30;;;;;;;20.67;8.90;;;4.50;99.90;;;;;;5089026;28;20151;-60
2021/11/26 19:14:58;;;;;;;17.92;9.68;;;4.50;99.90;;;;;;5088870;28;20032;-60
2021/11/26 19:17:25;;;;;;;18.70;9.23;;;4.50;99.90;;;;;;5081758;28;20039;-59
2021/11/26 19:19:50;;;;;;;18.17;9.27;;;4.50;99.90;;;;;;5071123;28;20035;-59
2021/11/26 19:22:17;;;;;;;18.33;9.45;;;4.60;99.90;;;;;;5089623;28;20404;-59
2021/11/26 19:24:44;;;;;;;22.83;8.95;;;4.50;99.90;;;;;;5089907;28;20468;-57
2021/11/26 19:27:10;;;;;;;20.70;9.57;;;4.50;99.90;;;;;;5089365;28;20138;-57
2021/11/26 19:29:36;;;;;;;16.77;9.23;;;4.50;99.90;;;;;;5088926;28;20024;-57
2021/11/26 19:32:03;;;;;;;15.57;8.93;;;4.50;99.90;;;;;;5089412;28;20035;-57
2021/11/26 19:34:29;;;;;;;19.23;9.73;;;4.50;99.90;;;;;;5089471;28;20028;-57
2021/11/26 19:36:55;;;;;;;16.92;9.65;;;4.50;99.90;;;;;;5086069;28;20099;-54
2021/11/26 19:39:21;;;;;;;18.45;9.18;;;4.50;99.90;;;;;;5068795;28;20032;-53
2021/11/26 19:41:47;;;;;;;13.82;9.05;;;4.50;99.90;;;;;;5078298;28;20033;-53
2021/11/26 19:44:13;;;;;;;18.98;10.13;;;4.60;99.90;;;;;;5070848;28;20519;-55
2021/11/26 19:46:40;;;;;;;17.55;9.90;;;4.60;99.90;;;;;;5072856;28;20063;-55
2021/11/26 19:49:06;;;;;;;14.80;9.48;;;4.60;99.90;;;;;;5089512;28;20106;-56
2021/11/26 19:51:33;;;;;;;16.90;9.18;;;4.50;99.90;;;;;;5091056;28;20028;-56
2021/11/26 19:53:59;;;;;;;16.70;9.63;;;4.50;99.90;;;;;;5092162;28;20042;-57
2021/11/26 19:56:25;;;;;;;19.60;9.75;;;4.50;99.90;;;;;;5092103;28;20111;-52
2021/11/26 19:58:51;;;;;;;15.82;8.90;;;4.40;99.90;;;;;;5092333;28;20093;-57
2021/11/26 20:01:17;;;;;;;16.67;9.38;;;4.50;99.90;;;;;;5088785;28;20321;-58
2021/11/26 20:03:42;;;;;;;16.73;9.20;;;4.50;99.90;;;;;;5090944;28;20052;-57
2021/11/26 20:06:13;;;;;;;15.70;8.88;;;4.50;99.90;;;;;;5092285;28;20028;-57
2021/11/26 20:08:39;;;;;;;16.58;9.20;;;4.50;99.90;;;;;;5093130;28;20032;-57
2021/11/26 20:11:06;;;;;;;17.25;9.75;;;4.50;99.90;;;;;;5093167;28;20108;-57
2021/11/26 20:13:32;;;;;;;16.13;9.80;;;4.40;99.90;;;;;;5093833;28;20024;-54
2021/11/26 20:15:58;;;;;;;22.23;11.13;;;4.50;99.90;;;;;;5093333;28;20085;-54
2021/11/26 20:18:24;;;;;;;17.02;9.60;;;4.50;99.90;;;;;;5093212;28;20024;-55
2021/11/26 20:20:50;;;;;;;17.45;10.07;;;4.40;99.90;;;;;;5093127;28;20043;-53
2021/11/26 20:23:18;;;;;;;20.17;9.88;;;4.40;99.90;;;;;;5093460;28;20154;-55
2021/11/26 20:25:44;;;;;;;19.13;9.57;;;4.40;99.90;;;;;;5093523;28;20047;-52
2021/11/26 20:28:10;;;;;;;16.50;9.82;;;4.30;99.90;;;;;;5090812;28;20253;-54
2021/11/26 20:30:36;;;;;;;17.02;10.40;;;4.30;99.90;;;;;;5093539;28;20026;-54
2021/11/26 20:33:03;;;;;;;18.90;10.27;;;4.30;99.90;;;;;;5092882;28;20099;-55
2021/11/26 20:35:30;;;;;;;17.17;9.77;;;4.30;99.90;;;;;;5093375;28;20032;-52
2021/11/26 20:37:56;;;;;;;20.85;10.70;;;4.30;99.90;;;;;;5091858;28;20107;-54
2021/11/26 20:40:23;;;;;;;14.68;8.80;;;4.30;99.90;;;;;;5092863;28;20097;-55
2021/11/26 20:42:51;;;;;;;19.38;10.55;;;4.30;99.90;;;;;;5093047;28;20465;-55
2021/11/26 20:45:18;;;;;;;16.92;9.45;;;4.20;99.90;;;;;;5092926;28;20024;-53
2021/11/26 20:47:45;;;;;;;19.23;10.13;;;4.30;99.90;;;;;;5092824;28;20052;-55
2021/11/26 20:50:11;;;;;;;19.20;9.43;;;4.20;99.90;;;;;;5092133;28;20028;-53
2021/11/26 20:52:38;;;;;;;19.38;11.15;;;4.20;99.90;;;;;;5092606;28;20134;-52
2021/11/26 20:55:06;;;;;;;19.25;10.65;;;4.20;99.90;;;;;;5091632;28;20028;-54
2021/11/26 20:57:33;;;;;;;21.05;9.40;;;4.10;99.90;;;;;;5092409;28;20031;-54
2021/11/26 20:59:59;;;;;;;17.83;10.30;;;4.10;99.90;;;;;;5091489;28;20036;-53
2021/11/26 21:02:25;;;;;;;16.73;9.80;;;4.00;99.90;;;;;;5092249;28;20401;-52
2021/11/26 21:04:51;;;;;;;17.00;10.15;;;4.00;99.90;;;;;;5091973;28;20030;-55
2021/11/26 21:07:18;;;;;;;17.48;9.65;;;4.10;99.90;;;;;;5092335;28;20462;-52
2021/11/26 21:09:44;;;;;;;22.38;10.80;;;4.10;99.90;;;;;;5091475;28;20039;-55
2021/11/26 21:12:10;;;;;;;18.05;10.57;;;4.10;99.90;;;;;;5091872;28;20094;-55
2021/11/26 21:14:36;;;;;;;19.70;11.18;;;4.10;99.90;;;;;;5092072;28;20470;-53
2021/11/26 21:17:03;;;;;;;16.23;9.73;;;4.00;99.90;;;;;;5092125;28;20040;-52
2021/11/26 21:19:29;;;;;;;16.92;9.75;;;4.00;99.90;;;;;;5091620;28;20032;-52
2021/11/26 21:21:55;;;;;;;17.38;10.10;;;4.00;99.90;;;;;;5091222;28;20024;-54
2021/11/26 21:24:21;;;;;;;16.50;9.73;;;4.00;99.90;;;;;;5092041;28;20042;-53
2021/11/26 21:26:47;;;;;;;18.13;9.85;;;4.00;99.90;;;;;;5091918;28;20412;-53
2021/11/26 21:29:13;;;;;;;20.13;11.20;;;3.90;99.90;;;;;;5089704;28;20081;-53
2021/11/26 21:31:39;;;;;;;19.38;10.68;;;3.90;99.90;;;;;;5091891;28;20090;-57
2021/11/26 21:34:06;;;;;;;18.48;10.20;;;3.90;99.90;;;;;;5091632;28;20028;-55
2021/11/26 21:36:32;;;;;;;15.30;9.85;;;4.00;99.90;;;;;;5091765;28;20040;-56
2021/11/26 21:38:58;;;;;;;17.52;9.52;;;3.90;99.90;;;;;;5091042;28;20211;-56
2021/11/26 21:41:24;;;;;;;17.70;9.85;;;3.80;99.90;;;;;;5091785;28;20032;-56
2021/11/26 21:43:55;;;;;;;19.15;10.93;;;3.80;99.90;;;;;;5092007;28;20031;-56
2021/11/26 21:46:21;;;;;;;17.27;10.15;;;3.80;99.90;;;;;;5083214;28;20033;-56
2021/11/26 21:48:48;;;;;;;20.05;10.52;;;3.80;99.90;;;;;;5071347;28;20033;-56
2021/11/26 21:51:14;;;;;;;18.88;9.75;;;3.80;99.90;;;;;;5071016;28;20031;-57
2021/11/26 21:53:41;;;;;;;19.88;10.20;;;3.90;99.90;;;;;;5071563;28;20054;-55
2021/11/26 21:56:07;;;;;;;17.55;9.88;;;3.80;99.90;;;;;;5070804;28;20098;-55
2021/11/26 21:58:33;;;;;;;17.05;9.50;;;3.80;99.90;;;;;;5070815;28;20087;-59
2021/11/26 22:00:58;;;;;;;15.98;8.70;;;3.80;99.90;;;;;;5070662;28;20052;-60
2021/11/26 22:03:24;;;;;;;20.50;9.68;;;3.70;99.90;;;;;;5071012;28;20447;-61
2021/11/26 22:05:50;;;;;;;19.35;10.05;;;3.70;99.90;;;;;;5070004;28;20067;-59
2021/11/26 22:08:16;;;;;;;16.55;10.02;;;3.80;99.90;;;;;;5070700;28;20450;-60
2021/11/26 22:10:42;;;;;;;18.08;10.10;;;3.80;99.90;;;;;;5070920;28;20028;-60
2021/11/26 22:13:08;;;;;;;19.05;9.85;;;3.80;99.90;;;;;;5069096;28;20025;-61
2021/11/26 22:15:36;;;;;;;17.02;9.93;;;3.80;99.90;;;;;;5070757;28;20516;-60
2021/11/26 22:18:03;;;;;;;16.98;10.02;;;3.80;99.90;;;;;;5069975;28;20058;-60
2021/11/26 22:20:29;;;;;;;20.77;11.80;;;3.80;99.90;;;;;;5070575;28;20041;-59
2021/11/26 22:22:56;;;;;;;21.15;10.60;;;3.80;99.90;;;;;;5070062;28;20541;-60
2021/11/26 22:25:22;;;;;;;19.50;11.38;;;3.80;99.90;;;;;;5069464;28;20031;-58
2021/11/26 22:27:49;;;;;;;18.50;10.43;;;3.80;99.90;;;;;;5070152;28;20025;-62
2021/11/26 22:30:15;;;;;;;17.63;10.13;;;3.90;99.90;;;;;;5068643;28;20036;-60
2021/11/26 22:32:41;;;;;;;17.15;10.80;;;3.90;99.90;;;;;;5070625;28;20047;-60
2021/11/26 22:35:08;;;;;;;18.70;10.90;;;3.90;99.90;;;;;;5068750;28;20469;-61
2021/11/26 22:37:34;;;;;;;21.63;11.77;;;3.80;99.90;;;;;;5070845;28;20435;-59
2021/11/26 22:40:00;;;;;;;23.20;11.20;;;3.90;99.90;;;;;;5069665;28;20436;-59
2021/11/26 22:42:26;;;;;;;23.08;12.07;;;3.90;99.90;;;;;;5070640;28;20029;-60
2021/11/26 22:44:52;;;;;;;22.83;11.82;;;3.90;99.90;;;;;;5069909;28;20742;-60
2021/11/26 22:47:18;;;;;;;21.25;11.13;;;3.90;99.90;;;;;;5070545;28;20112;-60
2021/11/26 22:49:43;;;;;;;17.55;10.15;;;3.90;99.90;;;;;;5069725;28;20434;-61
2021/11/26 22:52:10;;;;;;;23.08;11.32;;;3.90;99.90;;;;;;5069763;28;20036;-59
2021/11/26 22:54:36;;;;;;;20.73;10.93;;;3.90;99.90;;;;;;5070280;28;20035;-61
2021/11/26 22:57:03;;;;;;;23.83;12.13;;;3.80;99.90;;;;;;5069599;28;20359;-61
2021/11/26 22:59:29;;;;;;;24.65;12.55;;;3.90;99.90;;;;;;5069953;28;20055;-61
2021/11/26 23:01:55;;;;;;;25.25;12.90;;;3.90;99.90;;;;;;5069893;28;20037;-60
2021/11/26 23:04:22;;;;;;;24.55;13.25;;;3.90;99.90;;;;;;5070455;28;20025;-60
2021/11/26 23:06:47;;;;;;;24.27;12.48;;;3.90;99.90;;;;;;5070601;28;20365;-59
2021/11/26 23:09:13;;;;;;;20.17;11.43;;;3.90;99.90;;;;;;5069478;28;20021;-62
2021/11/26 23:11:43;;;;;;;21.85;11.43;;;3.90;99.90;;;;;;5070733;28;20077;-60
2021/11/26 23:14:09;;;;;;;21.02;11.43;;;3.90;99.90;;;;;;5070162;28;20321;-60
2021/11/26 23:16:36;;;;;;;20.98;12.07;;;3.80;99.90;;;;;;5069952;28;20048;-60